sensor_id;sensor_type;location;lat;lon;timestamp;temperature;humidity
15455;DHT22;21057;51.024;7.540;2024-01-15T00:02:19;1.30;99.90
15455;DHT22;21057;51.024;7.540;2024-01-15T00:04:46;1.30;99.90
15455;DHT22;21057;51.024;7.540;2024-01-15T00:07:14;1.10;99.90
15455;DHT22;21057;51.024;7.540;2024-01-15T00:09:40;1.10;99.90
15455;DHT22;21057;51.024;7.540;2024-01-15T00:12:07;1.20;99.90
15455;DHT22;21057;51.024;7.540;2024-01-15T00:14:34;1.20;99.90
15455;DHT22;21057;51.024;7.540;2024-01-15T00:17:01;1.10;99.90
15455;DHT22;21057;51.024;7.540;2024-01-15T00:19:28;0.80;99.90
15455;DHT22;21057;51.024;7.540;2024-01-15T00:21:57;1.10;99.90
15455;DHT22;21057;51.024;7.540;2024-01-15T00:24:25;1.10;99.90
15455;DHT22;21057;51.024;7.540;2024-01-15T00:26:52;1.10;99.90
15455;DHT22;21057;51.024;7.540;2024-01-15T00:29:21;0.90;99.90
15455;DHT22;21057;51.024;7.540;2024-01-15T00:31:47;1.00;99.90
15455;DHT22;21057;51.024;7.540;2024-01-15T00:34:14;0.80;99.90
15455;DHT22;21057;51.024;7.540;2024-01-15T00:36:41;0.90;99.90
15455;DHT22;21057;51.024;7.540;2024-01-15T00:39:08;0.90;99.90
15455;DHT22;21057;51.024;7.540;2024-01-15T00:41:37;0.80;99.90
15455;DHT22;21057;51.024;7.540;2024-01-15T00:44:04;0.80;99.90
15455;DHT22;21057;51.024;7.540;2024-01-15T00:46:31;1.00;99.90
15455;DHT22;21057;51.024;7.540;2024-01-15T00:48:57;1.00;99.90
15455;DHT22;21057;51.024;7.540;2024-01-15T00:51:24;1.10;99.90
15455;DHT22;21057;51.024;7.540;2024-01-15T00:53:51;1.10;99.90
15455;DHT22;21057;51.024;7.540;2024-01-15T00:56:18;1.20;99.90
15455;DHT22;21057;51.024;7.540;2024-01-15T00:58:46;1.10;99.90
15455;DHT22;21057;51.024;7.540;2024-01-15T01:01:13;1.10;99.90
15455;DHT22;21057;51.024;7.540;2024-01-15T01:03:39;1.00;99.90
15455;DHT22;21057;51.024;7.540;2024-01-15T01:06:06;1.10;99.90
15455;DHT22;21057;51.024;7.540;2024-01-15T01:08:33;1.10;99.90
15455;DHT22;21057;51.024;7.540;2024-01-15T01:11:00;1.10;99.90
15455;DHT22;21057;51.024;7.540;2024-01-15T01:13:26;1.10;99.90
15455;DHT22;21057;51.024;7.540;2024-01-15T01:15:55;1.10;99.90
15455;DHT22;21057;51.024;7.540;2024-01-15T01:18:21;1.00;99.90
15455;DHT22;21057;51.024;7.540;2024-01-15T01:20:48;1.10;99.90
15455;DHT22;21057;51.024;7.540;2024-01-15T01:23:15;1.10;99.90
15455;DHT22;21057;51.024;7.540;2024-01-15T01:25:42;1.10;99.90
15455;DHT22;21057;51.024;7.540;2024-01-15T01:28:08;1.00;99.90
15455;DHT22;21057;51.024;7.540;2024-01-15T01:30:36;1.00;99.90
15455;DHT22;21057;51.024;7.540;2024-01-15T01:33:04;1.10;99.90
15455;DHT22;21057;51.024;7.540;2024-01-15T01:35:31;1.10;99.90
15455;DHT22;21057;51.024;7.540;2024-01-15T01:37:58;1.30;99.90
15455;DHT22;21057;51.024;7.540;2024-01-15T01:40:25;1.60;99.90
15455;DHT22;21057;51.024;7.540;2024-01-15T01:42:51;1.70;99.90
15455;DHT22;21057;51.024;7.540;2024-01-15T01:45:18;1.70;99.90
15455;DHT22;21057;51.024;7.540;2024-01-15T01:47:45;1.50;99.90
15455;DHT22;21057;51.024;7.540;2024-01-15T01:50:14;1.30;99.90
15455;DHT22;21057;51.024;7.540;2024-01-15T01:52:41;1.20;99.90
15455;DHT22;21057;51.024;7.540;2024-01-15T01:55:09;1.10;99.90
15455;DHT22;21057;51.024;7.540;2024-01-15T01:57:37;1.30;99.90
15455;DHT22;21057;51.024;7.540;2024-01-15T02:00:04;1.40;99.90
15455;DHT22;21057;51.024;7.540;2024-01-15T02:02:32;1.20;99.90
15455;DHT22;21057;51.024;7.540;2024-01-15T02:05:00;1.10;99.90
15455;DHT22;21057;51.024;7.540;2024-01-15T02:07:28;1.30;99.90
15455;DHT22;21057;51.024;7.540;2024-01-15T02:09:55;1.40;99.90
15455;DHT22;21057;51.024;7.540;2024-01-15T02:12:21;1.30;99.90
15455;DHT22;21057;51.024;7.540;2024-01-15T02:14:48;1.20;99.90
15455;DHT22;21057;51.024;7.540;2024-01-15T02:17:15;1.40;99.90
15455;DHT22;21057;51.024;7.540;2024-01-15T02:19:42;1.50;99.90
15455;DHT22;21057;51.024;7.540;2024-01-15T02:22:09;1.30;99.90
15455;DHT22;21057;51.024;7.540;2024-01-15T02:24:37;1.40;99.90
15455;DHT22;21057;51.024;7.540;2024-01-15T02:27:04;1.40;99.90
15455;DHT22;21057;51.024;7.540;2024-01-15T02:29:31;1.30;99.90
15455;DHT22;21057;51.024;7.540;2024-01-15T02:31:58;1.40;99.90
15455;DHT22;21057;51.024;7.540;2024-01-15T02:34:25;1.40;99.90
15455;DHT22;21057;51.024;7.540;2024-01-15T02:36:51;1.60;99.90
15455;DHT22;21057;51.024;7.540;2024-01-15T02:39:18;1.60;99.90
15455;DHT22;21057;51.024;7.540;2024-01-15T02:41:46;1.50;99.90
15455;DHT22;21057;51.024;7.540;2024-01-15T02:44:13;1.60;99.90
15455;DHT22;21057;51.024;7.540;2024-01-15T02:46:40;1.60;99.90
15455;DHT22;21057;51.024;7.540;2024-01-15T02:49:07;1.70;99.90
15455;DHT22;21057;51.024;7.540;2024-01-15T02:51:34;1.50;99.90
15455;DHT22;21057;51.024;7.540;2024-01-15T02:54:01;1.50;99.90
15455;DHT22;21057;51.024;7.540;2024-01-15T02:56:28;1.50;99.90
15455;DHT22;21057;51.024;7.540;2024-01-15T02:58:56;1.40;99.90
15455;DHT22;21057;51.024;7.540;2024-01-15T03:01:23;1.50;99.90
15455;DHT22;21057;51.024;7.540;2024-01-15T03:03:49;1.40;99.90
15455;DHT22;21057;51.024;7.540;2024-01-15T03:06:16;1.40;99.90
15455;DHT22;21057;51.024;7.540;2024-01-15T03:08:43;1.50;99.90
15455;DHT22;21057;51.024;7.540;2024-01-15T03:11:10;1.60;99.90
15455;DHT22;21057;51.024;7.540;2024-01-15T03:13:36;1.60;99.90
15455;DHT22;21057;51.024;7.540;2024-01-15T03:16:05;1.80;99.90
15455;DHT22;21057;51.024;7.540;2024-01-15T03:18:32;1.60;99.90
15455;DHT22;21057;51.024;7.540;2024-01-15T03:20:59;1.60;99.90
15455;DHT22;21057;51.024;7.540;2024-01-15T03:23:27;1.60;99.90
15455;DHT22;21057;51.024;7.540;2024-01-15T03:25:54;1.70;99.90
15455;DHT22;21057;51.024;7.540;2024-01-15T03:28:21;1.80;99.90
15455;DHT22;21057;51.024;7.540;2024-01-15T03:30:47;1.60;99.90
15455;DHT22;21057;51.024;7.540;2024-01-15T03:33:16;1.40;99.90
15455;DHT22;21057;51.024;7.540;2024-01-15T03:35:42;1.40;99.90
15455;DHT22;21057;51.024;7.540;2024-01-15T03:38:09;1.30;99.90
15455;DHT22;21057;51.024;7.540;2024-01-15T03:40:36;1.40;99.90
15455;DHT22;21057;51.024;7.540;2024-01-15T03:43:03;1.50;99.90
15455;DHT22;21057;51.024;7.540;2024-01-15T03:45:30;1.50;99.90
15455;DHT22;21057;51.024;7.540;2024-01-15T03:47:57;1.70;99.90
15455;DHT22;21057;51.024;7.540;2024-01-15T03:50:25;1.80;99.90
15455;DHT22;21057;51.024;7.540;2024-01-15T03:52:52;1.90;99.90
15455;DHT22;21057;51.024;7.540;2024-01-15T03:55:18;1.80;99.90
15455;DHT22;21057;51.024;7.540;2024-01-15T03:57:45;1.60;99.90
15455;DHT22;21057;51.024;7.540;2024-01-15T04:00:14;1.70;99.90
15455;DHT22;21057;51.024;7.540;2024-01-15T04:02:42;1.80;99.90
15455;DHT22;21057;51.024;7.540;2024-01-15T04:05:09;1.80;99.90
15455;DHT22;21057;51.024;7.540;2024-01-15T04:07:37;1.70;99.90
15455;DHT22;21057;51.024;7.540;2024-01-15T04:10:05;1.60;99.90
15455;DHT22;21057;51.024;7.540;2024-01-15T04:12:31;1.60;99.90
15455;DHT22;21057;51.024;7.540;2024-01-15T04:14:58;1.50;99.90
15455;DHT22;21057;51.024;7.540;2024-01-15T04:17:25;1.40;99.90
15455;DHT22;21057;51.024;7.540;2024-01-15T04:19:52;1.30;99.90
15455;DHT22;21057;51.024;7.540;2024-01-15T04:22:18;1.60;99.90
15455;DHT22;21057;51.024;7.540;2024-01-15T04:24:47;1.60;99.90
15455;DHT22;21057;51.024;7.540;2024-01-15T04:27:14;1.70;99.90
15455;DHT22;21057;51.024;7.540;2024-01-15T04:29:41;1.70;99.90
15455;DHT22;21057;51.024;7.540;2024-01-15T04:32:07;1.90;99.90
15455;DHT22;21057;51.024;7.540;2024-01-15T04:34:34;2.00;99.90
15455;DHT22;21057;51.024;7.540;2024-01-15T04:37:01;1.80;99.90
15455;DHT22;21057;51.024;7.540;2024-01-15T04:39:28;1.40;99.90
15455;DHT22;21057;51.024;7.540;2024-01-15T04:41:56;1.50;99.90
15455;DHT22;21057;51.024;7.540;2024-01-15T04:44:23;1.70;99.90
15455;DHT22;21057;51.024;7.540;2024-01-15T04:46:50;1.70;99.90
15455;DHT22;21057;51.024;7.540;2024-01-15T04:49:16;1.60;99.90
15455;DHT22;21057;51.024;7.540;2024-01-15T04:51:43;1.60;99.90
15455;DHT22;21057;51.024;7.540;2024-01-15T04:54:10;1.70;99.90
15455;DHT22;21057;51.024;7.540;2024-01-15T04:56:37;1.70;99.90
15455;DHT22;21057;51.024;7.540;2024-01-15T04:59:05;1.50;99.90
15455;DHT22;21057;51.024;7.540;2024-01-15T05:01:32;1.50;99.90
15455;DHT22;21057;51.024;7.540;2024-01-15T05:03:59;1.40;99.90
15455;DHT22;21057;51.024;7.540;2024-01-15T05:06:26;1.50;99.90
15455;DHT22;21057;51.024;7.540;2024-01-15T05:08:52;1.50;99.90
15455;DHT22;21057;51.024;7.540;2024-01-15T05:11:19;1.40;99.90
15455;DHT22;21057;51.024;7.540;2024-01-15T05:13:46;1.40;99.90
15455;DHT22;21057;51.024;7.540;2024-01-15T05:16:14;1.30;99.90
15455;DHT22;21057;51.024;7.540;2024-01-15T05:18:41;1.40;99.90
15455;DHT22;21057;51.024;7.540;2024-01-15T05:21:08;1.40;99.90
15455;DHT22;21057;51.024;7.540;2024-01-15T05:23:35;1.50;99.90
15455;DHT22;21057;51.024;7.540;2024-01-15T05:26:02;1.30;99.90
15455;DHT22;21057;51.024;7.540;2024-01-15T05:28:29;1.40;99.90
15455;DHT22;21057;51.024;7.540;2024-01-15T05:30:56;1.30;99.90
15455;DHT22;21057;51.024;7.540;2024-01-15T05:33:24;1.40;99.90
15455;DHT22;21057;51.024;7.540;2024-01-15T05:35:51;1.40;99.90
15455;DHT22;21057;51.024;7.540;2024-01-15T05:38:19;1.30;99.90
15455;DHT22;21057;51.024;7.540;2024-01-15T05:40:46;1.30;99.90
15455;DHT22;21057;51.024;7.540;2024-01-15T05:43:12;1.40;99.90
15455;DHT22;21057;51.024;7.540;2024-01-15T05:45:43;1.40;99.90
15455;DHT22;21057;51.024;7.540;2024-01-15T05:48:09;1.50;99.90
15455;DHT22;21057;51.024;7.540;2024-01-15T05:50:38;1.70;99.90
15455;DHT22;21057;51.024;7.540;2024-01-15T05:53:04;1.60;99.90
15455;DHT22;21057;51.024;7.540;2024-01-15T05:55:31;1.50;99.90
15455;DHT22;21057;51.024;7.540;2024-01-15T05:57:58;1.40;99.90
15455;DHT22;21057;51.024;7.540;2024-01-15T06:00:25;1.30;99.90
15455;DHT22;21057;51.024;7.540;2024-01-15T06:02:51;1.20;99.90
15455;DHT22;21057;51.024;7.540;2024-01-15T06:05:18;1.50;99.90
15455;DHT22;21057;51.024;7.540;2024-01-15T06:07:46;1.60;99.90
15455;DHT22;21057;51.024;7.540;2024-01-15T06:10:13;1.70;99.90
15455;DHT22;21057;51.024;7.540;2024-01-15T06:12:40;1.80;99.90
15455;DHT22;21057;51.024;7.540;2024-01-15T06:15:07;1.80;99.90
15455;DHT22;21057;51.024;7.540;2024-01-15T06:17:34;1.60;99.90
15455;DHT22;21057;51.024;7.540;2024-01-15T06:20:01;1.60;99.90
15455;DHT22;21057;51.024;7.540;2024-01-15T06:22:28;1.70;99.90
15455;DHT22;21057;51.024;7.540;2024-01-15T06:24:57;1.70;99.90
15455;DHT22;21057;51.024;7.540;2024-01-15T06:27:24;1.70;99.90
15455;DHT22;21057;51.024;7.540;2024-01-15T06:29:51;1.70;99.90
15455;DHT22;21057;51.024;7.540;2024-01-15T06:32:18;1.50;99.90
15455;DHT22;21057;51.024;7.540;2024-01-15T06:34:44;1.50;99.90
15455;DHT22;21057;51.024;7.540;2024-01-15T06:37:11;1.60;99.90
15455;DHT22;21057;51.024;7.540;2024-01-15T06:39:38;1.50;99.90
15455;DHT22;21057;51.024;7.540;2024-01-15T06:42:06;1.50;99.90
15455;DHT22;21057;51.024;7.540;2024-01-15T06:44:33;1.60;99.90
15455;DHT22;21057;51.024;7.540;2024-01-15T06:47:00;1.80;99.90
15455;DHT22;21057;51.024;7.540;2024-01-15T06:49:28;1.80;99.90
15455;DHT22;21057;51.024;7.540;2024-01-15T06:51:55;1.60;99.90
15455;DHT22;21057;51.024;7.540;2024-01-15T06:54:21;1.60;99.90
15455;DHT22;21057;51.024;7.540;2024-01-15T06:56:49;1.60;99.90
15455;DHT22;21057;51.024;7.540;2024-01-15T06:59:17;1.70;99.90
15455;DHT22;21057;51.024;7.540;2024-01-15T07:01:44;1.60;99.90
15455;DHT22;21057;51.024;7.540;2024-01-15T07:04:10;1.60;99.90
15455;DHT22;21057;51.024;7.540;2024-01-15T07:06:37;1.50;99.90
15455;DHT22;21057;51.024;7.540;2024-01-15T07:09:04;1.40;99.90
15455;DHT22;21057;51.024;7.540;2024-01-15T07:11:31;1.40;99.90
15455;DHT22;21057;51.024;7.540;2024-01-15T07:13:58;1.50;99.90
15455;DHT22;21057;51.024;7.540;2024-01-15T07:16:26;1.60;99.90
15455;DHT22;21057;51.024;7.540;2024-01-15T07:18:53;1.70;99.90
15455;DHT22;21057;51.024;7.540;2024-01-15T07:21:20;1.60;99.90
15455;DHT22;21057;51.024;7.540;2024-01-15T07:23:47;1.70;99.90
15455;DHT22;21057;51.024;7.540;2024-01-15T07:26:13;1.60;99.90
15455;DHT22;21057;51.024;7.540;2024-01-15T07:28:40;1.70;99.90
15455;DHT22;21057;51.024;7.540;2024-01-15T07:31:08;1.70;99.90
15455;DHT22;21057;51.024;7.540;2024-01-15T07:33:36;1.70;99.90
15455;DHT22;21057;51.024;7.540;2024-01-15T07:36:03;1.60;99.90
15455;DHT22;21057;51.024;7.540;2024-01-15T07:38:30;1.60;99.90
15455;DHT22;21057;51.024;7.540;2024-01-15T07:40:57;1.70;99.90
15455;DHT22;21057;51.024;7.540;2024-01-15T07:43:24;1.80;99.90
15455;DHT22;21057;51.024;7.540;2024-01-15T07:45:52;1.70;99.90
15455;DHT22;21057;51.024;7.540;2024-01-15T07:48:19;1.70;99.90
15455;DHT22;21057;51.024;7.540;2024-01-15T07:50:47;1.70;99.90
15455;DHT22;21057;51.024;7.540;2024-01-15T07:53:13;1.80;99.90
15455;DHT22;21057;51.024;7.540;2024-01-15T07:55:40;1.90;99.90
15455;DHT22;21057;51.024;7.540;2024-01-15T07:58:07;1.90;99.90
15455;DHT22;21057;51.024;7.540;2024-01-15T08:00:34;1.80;99.90
15455;DHT22;21057;51.024;7.540;2024-01-15T08:03:01;1.70;99.90
15455;DHT22;21057;51.024;7.540;2024-01-15T08:05:28;1.90;99.90
15455;DHT22;21057;51.024;7.540;2024-01-15T08:07:56;1.90;99.90
15455;DHT22;21057;51.024;7.540;2024-01-15T08:10:23;1.80;99.90
15455;DHT22;21057;51.024;7.540;2024-01-15T08:12:50;1.90;99.90
15455;DHT22;21057;51.024;7.540;2024-01-15T08:15:17;2.00;99.90
15455;DHT22;21057;51.024;7.540;2024-01-15T08:17:44;1.90;99.90
15455;DHT22;21057;51.024;7.540;2024-01-15T08:20:10;1.80;99.90
15455;DHT22;21057;51.024;7.540;2024-01-15T08:22:38;1.70;99.90
15455;DHT22;21057;51.024;7.540;2024-01-15T08:25:07;1.70;99.90
15455;DHT22;21057;51.024;7.540;2024-01-15T08:27:35;1.60;99.90
15455;DHT22;21057;51.024;7.540;2024-01-15T08:30:02;1.60;99.90
15455;DHT22;21057;51.024;7.540;2024-01-15T08:32:29;1.60;99.90
15455;DHT22;21057;51.024;7.540;2024-01-15T08:34:56;1.70;99.90
15455;DHT22;21057;51.024;7.540;2024-01-15T08:37:23;1.70;99.90
15455;DHT22;21057;51.024;7.540;2024-01-15T08:39:50;1.60;99.90
15455;DHT22;21057;51.024;7.540;2024-01-15T08:42:18;1.70;99.90
15455;DHT22;21057;51.024;7.540;2024-01-15T08:44:44;1.90;99.90
15455;DHT22;21057;51.024;7.540;2024-01-15T08:47:12;1.90;99.90
15455;DHT22;21057;51.024;7.540;2024-01-15T08:49:39;1.80;99.90
15455;DHT22;21057;51.024;7.540;2024-01-15T08:52:06;1.90;99.90
15455;DHT22;21057;51.024;7.540;2024-01-15T08:54:33;2.00;99.90
15455;DHT22;21057;51.024;7.540;2024-01-15T08:56:59;1.90;99.90
15455;DHT22;21057;51.024;7.540;2024-01-15T08:59:27;1.90;99.90
15455;DHT22;21057;51.024;7.540;2024-01-15T09:01:54;1.80;99.90
15455;DHT22;21057;51.024;7.540;2024-01-15T09:04:22;1.70;99.90
15455;DHT22;21057;51.024;7.540;2024-01-15T09:06:50;1.80;99.90
15455;DHT22;21057;51.024;7.540;2024-01-15T09:09:16;1.70;99.90
15455;DHT22;21057;51.024;7.540;2024-01-15T09:11:43;1.80;99.90
15455;DHT22;21057;51.024;7.540;2024-01-15T09:14:10;1.70;99.90
15455;DHT22;21057;51.024;7.540;2024-01-15T09:16:38;1.70;99.90
15455;DHT22;21057;51.024;7.540;2024-01-15T09:19:05;1.60;99.90
15455;DHT22;21057;51.024;7.540;2024-01-15T09:21:31;1.70;99.90
15455;DHT22;21057;51.024;7.540;2024-01-15T09:23:58;1.80;99.90
15455;DHT22;21057;51.024;7.540;2024-01-15T09:26:25;1.80;99.90
15455;DHT22;21057;51.024;7.540;2024-01-15T09:28:52;1.70;99.90
15455;DHT22;21057;51.024;7.540;2024-01-15T09:31:19;1.70;99.90
15455;DHT22;21057;51.024;7.540;2024-01-15T09:33:48;1.80;99.90
15455;DHT22;21057;51.024;7.540;2024-01-15T09:36:17;1.90;99.90
15455;DHT22;21057;51.024;7.540;2024-01-15T09:38:44;1.70;99.90
15455;DHT22;21057;51.024;7.540;2024-01-15T09:41:11;1.70;99.90
15455;DHT22;21057;51.024;7.540;2024-01-15T09:43:38;1.80;99.90
15455;DHT22;21057;51.024;7.540;2024-01-15T09:46:05;1.90;99.90
15455;DHT22;21057;51.024;7.540;2024-01-15T09:48:32;1.90;99.90
15455;DHT22;21057;51.024;7.540;2024-01-15T09:51:01;1.80;99.90
15455;DHT22;21057;51.024;7.540;2024-01-15T09:53:30;1.90;99.90
15455;DHT22;21057;51.024;7.540;2024-01-15T09:55:58;2.00;99.90
15455;DHT22;21057;51.024;7.540;2024-01-15T09:58:25;2.10;99.90
15455;DHT22;21057;51.024;7.540;2024-01-15T10:00:53;2.10;99.90
15455;DHT22;21057;51.024;7.540;2024-01-15T10:03:20;2.10;99.90
15455;DHT22;21057;51.024;7.540;2024-01-15T10:05:49;2.00;99.90
15455;DHT22;21057;51.024;7.540;2024-01-15T10:08:18;2.00;99.90
15455;DHT22;21057;51.024;7.540;2024-01-15T10:10:45;1.90;99.90
15455;DHT22;21057;51.024;7.540;2024-01-15T10:13:12;1.90;99.90
15455;DHT22;21057;51.024;7.540;2024-01-15T10:15:40;2.10;99.90
15455;DHT22;21057;51.024;7.540;2024-01-15T10:18:08;2.00;99.90
15455;DHT22;21057;51.024;7.540;2024-01-15T10:20:36;2.10;99.90
15455;DHT22;21057;51.024;7.540;2024-01-15T10:23:03;2.10;99.90
15455;DHT22;21057;51.024;7.540;2024-01-15T10:25:31;1.80;99.90
15455;DHT22;21057;51.024;7.540;2024-01-15T10:28:02;1.90;99.90
15455;DHT22;21057;51.024;7.540;2024-01-15T10:30:30;1.90;99.90
15455;DHT22;21057;51.024;7.540;2024-01-15T10:32:58;1.80;99.90
15455;DHT22;21057;51.024;7.540;2024-01-15T10:35:27;1.70;99.90
15455;DHT22;21057;51.024;7.540;2024-01-15T10:37:54;1.80;99.90
15455;DHT22;21057;51.024;7.540;2024-01-15T10:40:21;2.00;99.90
15455;DHT22;21057;51.024;7.540;2024-01-15T10:42:49;2.20;99.90
15455;DHT22;21057;51.024;7.540;2024-01-15T10:45:16;2.20;99.90
15455;DHT22;21057;51.024;7.540;2024-01-15T10:47:44;2.10;99.90
15455;DHT22;21057;51.024;7.540;2024-01-15T10:50:11;2.10;99.90
15455;DHT22;21057;51.024;7.540;2024-01-15T10:52:39;2.20;99.90
15455;DHT22;21057;51.024;7.540;2024-01-15T10:55:08;2.10;99.90
15455;DHT22;21057;51.024;7.540;2024-01-15T10:57:35;2.30;99.90
15455;DHT22;21057;51.024;7.540;2024-01-15T11:00:05;2.40;99.90
15455;DHT22;21057;51.024;7.540;2024-01-15T11:02:32;2.60;99.90
15455;DHT22;21057;51.024;7.540;2024-01-15T11:05:01;2.60;99.90
15455;DHT22;21057;51.024;7.540;2024-01-15T11:07:30;2.60;99.90
15455;DHT22;21057;51.024;7.540;2024-01-15T11:09:57;2.80;99.90
15455;DHT22;21057;51.024;7.540;2024-01-15T11:12:25;3.00;99.90
15455;DHT22;21057;51.024;7.540;2024-01-15T11:14:51;2.70;99.90
15455;DHT22;21057;51.024;7.540;2024-01-15T11:17:21;2.70;99.90
15455;DHT22;21057;51.024;7.540;2024-01-15T11:19:49;2.40;99.90
15455;DHT22;21057;51.024;7.540;2024-01-15T11:22:48;2.20;99.90
15455;DHT22;21057;51.024;7.540;2024-01-15T11:25:15;2.40;99.90
15455;DHT22;21057;51.024;7.540;2024-01-15T11:27:45;2.70;99.90
15455;DHT22;21057;51.024;7.540;2024-01-15T11:30:13;2.60;99.90
15455;DHT22;21057;51.024;7.540;2024-01-15T11:32:42;2.70;99.90
15455;DHT22;21057;51.024;7.540;2024-01-15T11:35:09;2.60;99.90
15455;DHT22;21057;51.024;7.540;2024-01-15T11:38:06;2.60;99.90
15455;DHT22;21057;51.024;7.540;2024-01-15T11:40:37;2.40;99.90
15455;DHT22;21057;51.024;7.540;2024-01-15T11:43:05;2.40;99.90
15455;DHT22;21057;51.024;7.540;2024-01-15T11:45:32;2.50;99.90
15455;DHT22;21057;51.024;7.540;2024-01-15T11:48:12;2.70;99.90
15455;DHT22;21057;51.024;7.540;2024-01-15T11:50:43;2.50;99.90
15455;DHT22;21057;51.024;7.540;2024-01-15T11:53:17;2.30;99.90
15455;DHT22;21057;51.024;7.540;2024-01-15T11:55:45;2.40;99.90
15455;DHT22;21057;51.024;7.540;2024-01-15T11:58:14;2.70;99.90
15455;DHT22;21057;51.024;7.540;2024-01-15T12:00:43;2.60;99.90
15455;DHT22;21057;51.024;7.540;2024-01-15T12:03:11;2.60;99.90
15455;DHT22;21057;51.024;7.540;2024-01-15T12:05:38;2.60;99.90
15455;DHT22;21057;51.024;7.540;2024-01-15T12:08:07;2.20;99.90
15455;DHT22;21057;51.024;7.540;2024-01-15T12:10:37;2.10;99.90
15455;DHT22;21057;51.024;7.540;2024-01-15T12:13:07;2.20;99.90
15455;DHT22;21057;51.024;7.540;2024-01-15T12:15:35;2.30;99.90
15455;DHT22;21057;51.024;7.540;2024-01-15T12:18:04;2.20;99.90
15455;DHT22;21057;51.024;7.540;2024-01-15T12:20:32;2.00;99.90
15455;DHT22;21057;51.024;7.540;2024-01-15T12:23:00;1.80;99.90
15455;DHT22;21057;51.024;7.540;2024-01-15T12:25:29;1.70;99.90
15455;DHT22;21057;51.024;7.540;2024-01-15T12:27:57;1.90;99.90
15455;DHT22;21057;51.024;7.540;2024-01-15T12:30:24;1.80;99.90
15455;DHT22;21057;51.024;7.540;2024-01-15T12:32:53;1.90;99.90
15455;DHT22;21057;51.024;7.540;2024-01-15T12:35:20;1.80;99.90
15455;DHT22;21057;51.024;7.540;2024-01-15T12:37:48;2.10;99.90
15455;DHT22;21057;51.024;7.540;2024-01-15T12:40:19;1.80;99.90
15455;DHT22;21057;51.024;7.540;2024-01-15T12:42:46;1.60;99.90
15455;DHT22;21057;51.024;7.540;2024-01-15T12:45:13;1.70;99.90
15455;DHT22;21057;51.024;7.540;2024-01-15T12:47:41;2.00;99.90
15455;DHT22;21057;51.024;7.540;2024-01-15T12:50:09;1.90;99.90
15455;DHT22;21057;51.024;7.540;2024-01-15T12:52:36;1.80;99.90
15455;DHT22;21057;51.024;7.540;2024-01-15T12:55:05;1.70;99.90
15455;DHT22;21057;51.024;7.540;2024-01-15T12:57:32;1.90;99.90
15455;DHT22;21057;51.024;7.540;2024-01-15T12:59:59;1.80;99.90
15455;DHT22;21057;51.024;7.540;2024-01-15T13:02:26;1.80;99.90
15455;DHT22;21057;51.024;7.540;2024-01-15T13:04:53;2.00;99.90
15455;DHT22;21057;51.024;7.540;2024-01-15T13:07:21;2.00;99.90
15455;DHT22;21057;51.024;7.540;2024-01-15T13:09:47;2.10;99.90
15455;DHT22;21057;51.024;7.540;2024-01-15T13:12:19;2.10;99.90
15455;DHT22;21057;51.024;7.540;2024-01-15T13:14:45;1.90;99.90
15455;DHT22;21057;51.024;7.540;2024-01-15T13:17:13;1.80;99.90
15455;DHT22;21057;51.024;7.540;2024-01-15T13:19:40;1.70;99.90
15455;DHT22;21057;51.024;7.540;2024-01-15T13:22:07;1.50;99.90
15455;DHT22;21057;51.024;7.540;2024-01-15T13:24:34;1.50;99.90
15455;DHT22;21057;51.024;7.540;2024-01-15T13:27:02;1.60;99.90
15455;DHT22;21057;51.024;7.540;2024-01-15T13:29:31;1.60;99.90
15455;DHT22;21057;51.024;7.540;2024-01-15T13:31:58;1.60;99.90
15455;DHT22;21057;51.024;7.540;2024-01-15T13:34:24;1.60;99.90
15455;DHT22;21057;51.024;7.540;2024-01-15T13:36:51;1.60;99.90
15455;DHT22;21057;51.024;7.540;2024-01-15T13:39:19;1.60;99.90
15455;DHT22;21057;51.024;7.540;2024-01-15T13:41:46;1.60;99.90
15455;DHT22;21057;51.024;7.540;2024-01-15T13:44:13;1.90;99.90
15455;DHT22;21057;51.024;7.540;2024-01-15T13:46:41;1.90;99.90
15455;DHT22;21057;51.024;7.540;2024-01-15T13:49:08;1.80;99.90
15455;DHT22;21057;51.024;7.540;2024-01-15T13:51:36;1.80;99.90
15455;DHT22;21057;51.024;7.540;2024-01-15T13:54:03;1.90;99.90
15455;DHT22;21057;51.024;7.540;2024-01-15T13:56:30;2.00;99.90
15455;DHT22;21057;51.024;7.540;2024-01-15T13:58:58;2.00;99.90
15455;DHT22;21057;51.024;7.540;2024-01-15T14:01:25;1.80;99.90
15455;DHT22;21057;51.024;7.540;2024-01-15T14:03:53;1.80;99.90
15455;DHT22;21057;51.024;7.540;2024-01-15T14:06:20;1.80;99.90
15455;DHT22;21057;51.024;7.540;2024-01-15T14:08:47;1.70;99.90
15455;DHT22;21057;51.024;7.540;2024-01-15T14:11:14;1.70;99.90
15455;DHT22;21057;51.024;7.540;2024-01-15T14:13:41;1.80;99.90
15455;DHT22;21057;51.024;7.540;2024-01-15T14:16:08;1.70;99.90
15455;DHT22;21057;51.024;7.540;2024-01-15T14:18:35;1.70;99.90
15455;DHT22;21057;51.024;7.540;2024-01-15T14:21:04;2.00;99.90
15455;DHT22;21057;51.024;7.540;2024-01-15T14:23:30;2.00;99.90
15455;DHT22;21057;51.024;7.540;2024-01-15T14:25:57;2.00;99.90
15455;DHT22;21057;51.024;7.540;2024-01-15T14:28:24;1.90;99.90
15455;DHT22;21057;51.024;7.540;2024-01-15T14:30:51;1.90;99.90
15455;DHT22;21057;51.024;7.540;2024-01-15T14:33:18;2.00;99.90
15455;DHT22;21057;51.024;7.540;2024-01-15T14:35:46;2.00;99.90
15455;DHT22;21057;51.024;7.540;2024-01-15T14:38:14;1.90;99.90
15455;DHT22;21057;51.024;7.540;2024-01-15T14:40:41;1.70;99.90
15455;DHT22;21057;51.024;7.540;2024-01-15T14:43:07;1.80;99.90
15455;DHT22;21057;51.024;7.540;2024-01-15T14:45:34;1.90;99.90
15455;DHT22;21057;51.024;7.540;2024-01-15T14:48:01;2.10;99.90
15455;DHT22;21057;51.024;7.540;2024-01-15T14:50:28;2.00;99.90
15455;DHT22;21057;51.024;7.540;2024-01-15T14:52:55;1.80;99.90
15455;DHT22;21057;51.024;7.540;2024-01-15T14:55:23;1.70;99.90
15455;DHT22;21057;51.024;7.540;2024-01-15T14:57:50;1.70;99.90
15455;DHT22;21057;51.024;7.540;2024-01-15T15:00:18;1.80;99.90
15455;DHT22;21057;51.024;7.540;2024-01-15T15:02:45;1.40;99.90
15455;DHT22;21057;51.024;7.540;2024-01-15T15:05:12;1.50;99.90
15455;DHT22;21057;51.024;7.540;2024-01-15T15:07:42;1.70;99.90
15455;DHT22;21057;51.024;7.540;2024-01-15T15:10:14;1.90;99.90
15455;DHT22;21057;51.024;7.540;2024-01-15T15:12:42;1.80;99.90
15455;DHT22;21057;51.024;7.540;2024-01-15T15:15:09;1.70;99.90
15455;DHT22;21057;51.024;7.540;2024-01-15T15:17:37;1.80;99.90
15455;DHT22;21057;51.024;7.540;2024-01-15T15:20:05;1.90;99.90
15455;DHT22;21057;51.024;7.540;2024-01-15T15:22:33;1.70;99.90
15455;DHT22;21057;51.024;7.540;2024-01-15T15:24:59;1.70;99.90
15455;DHT22;21057;51.024;7.540;2024-01-15T15:27:28;1.80;99.90
15455;DHT22;21057;51.024;7.540;2024-01-15T15:29:56;1.80;99.90
15455;DHT22;21057;51.024;7.540;2024-01-15T15:32:25;1.70;99.90
15455;DHT22;21057;51.024;7.540;2024-01-15T15:35:01;1.70;99.90
15455;DHT22;21057;51.024;7.540;2024-01-15T15:37:37;1.80;99.90
15455;DHT22;21057;51.024;7.540;2024-01-15T15:40:05;1.80;99.90
15455;DHT22;21057;51.024;7.540;2024-01-15T15:42:34;1.80;99.90
15455;DHT22;21057;51.024;7.540;2024-01-15T15:45:03;1.80;99.90
15455;DHT22;21057;51.024;7.540;2024-01-15T15:47:30;1.80;99.90